createdAt,value
2022-09-02T00:04:29.159Z,16.24
2022-09-02T00:09:30.915Z,16.22
2022-09-02T00:14:36.037Z,16.10
2022-09-02T00:19:38.527Z,16.08
2022-09-02T00:24:40.435Z,16.09
2022-09-02T00:29:42.006Z,16.03
2022-09-02T00:34:43.665Z,16.01
2022-09-02T00:39:45.250Z,16.01
2022-09-02T00:44:47.439Z,15.95
2022-09-02T00:49:53.986Z,15.93
2022-09-02T00:55:07.780Z,15.84
2022-09-02T01:00:24.262Z,15.81
2022-09-02T01:05:29.914Z,15.75
2022-09-02T01:10:34.505Z,15.70
2022-09-02T01:15:44.139Z,15.62
2022-09-02T01:20:46.326Z,15.62
2022-09-02T01:25:48.595Z,15.71
2022-09-02T01:30:53.748Z,15.66
2022-09-02T01:35:56.134Z,15.71
2022-09-02T01:40:58.213Z,15.72
2022-09-02T01:46:00.327Z,15.71
2022-09-02T01:51:03.703Z,15.74
2022-09-02T01:56:05.509Z,15.75
2022-09-02T02:01:08.179Z,15.76
2022-09-02T02:06:16.593Z,15.75
2022-09-02T02:11:24.152Z,15.76
2022-09-02T02:16:25.988Z,15.76
2022-09-02T02:21:28.126Z,15.76
2022-09-02T02:26:30.974Z,15.77
2022-09-02T02:31:33.153Z,15.78
2022-09-02T02:36:35.527Z,15.76
2022-09-02T02:41:37.720Z,15.72
2022-09-02T02:46:39.392Z,15.66
2022-09-02T02:51:41.072Z,15.66
2022-09-02T02:56:42.705Z,15.70
2022-09-02T03:01:44.348Z,15.64
2022-09-02T03:06:46.072Z,15.61
2022-09-02T03:11:48.278Z,15.62
2022-09-02T03:16:49.874Z,15.62
2022-09-02T03:21:52.125Z,15.64
2022-09-02T03:26:53.814Z,15.64
2022-09-02T03:31:55.592Z,15.63
2022-09-02T03:36:59.042Z,15.62
2022-09-02T03:42:01.061Z,15.61
2022-09-02T03:47:02.981Z,15.60
2022-09-02T03:52:04.628Z,15.61
2022-09-02T03:57:06.458Z,15.59
2022-09-02T04:02:08.255Z,15.61
2022-09-02T04:07:10.252Z,15.56
2022-09-02T04:12:11.914Z,15.54
2022-09-02T04:17:13.527Z,15.51
2022-09-02T04:22:15.165Z,15.47
2022-09-02T04:27:16.749Z,15.44
2022-09-02T04:32:18.395Z,15.38
2022-09-02T04:37:20.177Z,15.30
2022-09-02T04:42:21.833Z,15.28
2022-09-02T04:47:23.949Z,15.21
2022-09-02T04:52:25.800Z,15.16
2022-09-02T04:57:27.473Z,15.17
2022-09-02T05:02:29.122Z,15.18
2022-09-02T05:07:30.982Z,15.16
2022-09-02T05:12:35.376Z,15.10
2022-09-02T05:17:37.010Z,15.10
2022-09-02T05:22:38.847Z,15.09
2022-09-02T05:27:40.484Z,15.11
2022-09-02T05:32:42.416Z,15.23
2022-09-02T05:37:44.047Z,15.50
2022-09-02T05:42:45.637Z,15.79
2022-09-02T05:47:51.253Z,15.97
2022-09-02T05:52:52.891Z,16.31
2022-09-02T05:57:54.455Z,16.54
2022-09-02T06:02:56.925Z,16.70
2022-09-02T06:07:58.562Z,16.96
2022-09-02T06:13:00.204Z,17.37
2022-09-02T06:18:01.853Z,17.60
2022-09-02T06:23:04.328Z,17.93
2022-09-02T06:28:07.518Z,18.14
2022-09-02T06:33:10.141Z,18.09
2022-09-02T06:38:14.328Z,18.15
2022-09-02T06:43:16.001Z,18.26
2022-09-02T06:48:17.666Z,18.29
2022-09-02T06:53:19.757Z,18.13
2022-09-02T06:58:21.365Z,18.21
2022-09-02T07:03:41.309Z,18.28
2022-09-02T07:08:44.465Z,18.35
2022-09-02T07:13:46.156Z,18.35
2022-09-02T07:18:47.722Z,18.56
2022-09-02T07:23:49.413Z,18.75
2022-09-02T07:28:51.258Z,18.67
2022-09-02T07:33:53.358Z,18.75
2022-09-02T07:38:55.107Z,19.04
2022-09-02T07:43:59.741Z,19.04
2022-09-02T07:49:05.889Z,19.15
2022-09-02T07:54:13.147Z,19.29
2022-09-02T07:59:14.758Z,19.40
2022-09-02T08:04:18.762Z,19.62
2022-09-02T08:09:21.431Z,19.57
2022-09-02T08:14:28.773Z,19.71
2022-09-02T08:19:31.070Z,19.98
2022-09-02T08:24:33.180Z,20.31
2022-09-02T08:29:35.292Z,20.38
2022-09-02T08:34:36.889Z,20.14
2022-09-02T08:39:38.508Z,19.99
2022-09-02T08:44:41.241Z,20.27
2022-09-02T08:49:48.488Z,20.06
2022-09-02T08:54:57.735Z,20.02
2022-09-02T09:00:02.058Z,20.15
2022-09-02T09:05:40.841Z,20.44
2022-09-02T09:11:03.076Z,20.64
2022-09-02T09:16:10.833Z,20.72
2022-09-02T09:21:14.670Z,20.75
2022-09-02T09:26:26.780Z,20.71
2022-09-02T09:31:31.221Z,20.84
2022-09-02T09:36:41.715Z,20.67
2022-09-02T09:41:44.370Z,20.66
2022-09-02T09:46:46.014Z,20.94
2022-09-02T09:51:55.669Z,21.44
2022-09-02T09:57:15.971Z,21.08
2022-09-02T10:02:22.310Z,21.28
2022-09-02T10:07:45.340Z,21.55
2022-09-02T10:12:49.632Z,21.70
2022-09-02T10:18:14.759Z,21.31
2022-09-02T10:23:21.571Z,21.04
2022-09-02T10:28:52.651Z,20.60
2022-09-02T10:34:03.564Z,20.37
2022-09-02T10:39:30.527Z,20.41
2022-09-02T10:45:04.129Z,20.48
2022-09-02T10:50:14.929Z,20.66
2022-09-02T10:55:23.220Z,20.97
2022-09-02T11:00:28.337Z,20.90
2022-09-02T11:05:48.915Z,21.06
2022-09-02T11:11:02.655Z,21.22
2022-09-02T11:17:02.791Z,20.80
2022-09-02T11:22:11.043Z,20.67
2022-09-02T11:27:45.536Z,20.79
2022-09-02T11:33:19.163Z,20.84
2022-09-02T11:38:23.640Z,20.85
2022-09-02T11:43:42.393Z,21.19
2022-09-02T11:49:10.568Z,21.38
2022-09-02T11:54:16.366Z,21.14
2022-09-02T11:59:53.310Z,21.09
2022-09-02T12:05:41.235Z,21.21
2022-09-02T12:10:43.651Z,21.41
2022-09-02T12:15:45.599Z,21.21
2022-09-02T12:20:51.093Z,21.42
2022-09-02T12:26:01.557Z,21.56
2022-09-02T12:31:07.732Z,21.48
2022-09-02T12:36:29.907Z,21.49
2022-09-02T12:41:34.246Z,21.51
2022-09-02T12:46:45.267Z,21.32
2022-09-02T12:52:11.987Z,21.21
2022-09-02T12:57:16.351Z,21.30
2022-09-02T13:02:53.472Z,21.34
2022-09-02T13:08:23.945Z,21.38
2022-09-02T13:13:46.896Z,21.20
2022-09-02T13:19:20.315Z,21.09
2022-09-02T13:25:00.592Z,20.88
2022-09-02T13:30:18.125Z,20.87
2022-09-02T13:35:25.998Z,20.97
2022-09-02T13:40:28.966Z,21.49
2022-09-02T13:45:35.189Z,21.76
2022-09-02T13:50:42.379Z,21.42
2022-09-02T13:55:50.884Z,21.22
2022-09-02T14:00:52.456Z,21.16
2022-09-02T14:05:57.480Z,20.98
2022-09-02T14:11:00.703Z,20.99
2022-09-02T14:16:34.534Z,20.88
2022-09-02T14:21:38.068Z,20.88
2022-09-02T14:26:44.137Z,20.80
2022-09-02T14:31:46.628Z,20.69
2022-09-02T14:36:48.192Z,20.72
2022-09-02T14:41:53.287Z,20.66
2022-09-02T14:46:57.664Z,20.67
2022-09-02T14:52:02.063Z,20.80
2022-09-02T14:57:05.120Z,21.13
2022-09-02T15:02:06.804Z,21.24
2022-09-02T15:07:08.406Z,21.12
2022-09-02T15:12:12.057Z,20.91
2022-09-02T15:17:15.896Z,20.75
2022-09-02T15:22:18.321Z,20.70
2022-09-02T15:27:21.592Z,20.64
2022-09-02T15:32:26.702Z,20.62
2022-09-02T15:37:28.251Z,20.66
2022-09-02T15:42:29.871Z,20.66
2022-09-02T15:47:35.156Z,20.65
2022-09-02T15:52:37.163Z,20.60
2022-09-02T15:57:38.764Z,20.46
2022-09-02T16:02:40.435Z,20.24
2022-09-02T16:07:42.094Z,20.06
2022-09-02T16:12:43.660Z,20.00
2022-09-02T16:17:45.229Z,20.02
2022-09-02T16:22:47.110Z,20.08
2022-09-02T16:27:55.871Z,20.17
2022-09-02T16:32:57.460Z,20.12
2022-09-02T16:37:59.035Z,20.05
2022-09-02T16:43:00.644Z,20.07
2022-09-02T16:48:02.370Z,19.91
2022-09-02T16:53:03.955Z,19.78
2022-09-02T16:58:05.522Z,19.85
2022-09-02T17:03:11.842Z,19.72
2022-09-02T17:08:13.428Z,19.67
2022-09-02T17:13:15.143Z,19.52
2022-09-02T17:18:16.735Z,19.43
2022-09-02T17:23:18.408Z,19.37
2022-09-02T17:28:20.010Z,19.22
2022-09-02T17:33:21.731Z,19.13
2022-09-02T17:38:27.183Z,19.03
2022-09-02T17:43:29.005Z,18.97
2022-09-02T17:48:41.688Z,18.85
2022-09-02T17:53:46.889Z,18.81
2022-09-02T17:59:27.189Z,18.73
2022-09-02T18:04:59.385Z,18.71
2022-09-02T18:10:00.969Z,18.62
2022-09-02T18:15:03.063Z,18.45
2022-09-02T18:20:38.573Z,18.39
2022-09-02T18:26:07.561Z,18.27
2022-09-02T18:31:47.014Z,18.27
2022-09-02T18:37:10.170Z,18.27
2022-09-02T18:42:30.489Z,18.24
2022-09-02T18:47:54.206Z,18.21
2022-09-02T18:52:59.071Z,18.08
2022-09-02T18:58:27.024Z,18.00
2022-09-02T19:03:34.918Z,17.99
2022-09-02T19:08:38.337Z,18.01
2022-09-02T19:13:49.811Z,17.97
2022-09-02T19:18:51.851Z,17.97
2022-09-02T19:23:53.712Z,17.90
2022-09-02T19:28:56.177Z,17.88
2022-09-02T19:34:02.003Z,17.75
2022-09-02T19:39:03.759Z,17.82
2022-09-02T19:44:05.309Z,17.60
2022-09-02T19:49:06.859Z,17.49
2022-09-02T19:54:08.677Z,17.40
2022-09-02T19:59:10.967Z,17.23
2022-09-02T20:04:12.750Z,17.13
2022-09-02T20:09:14.381Z,17.13
2022-09-02T20:14:18.709Z,16.91
2022-09-02T20:19:21.508Z,16.90
2022-09-02T20:24:31.604Z,17.02
2022-09-02T20:30:08.997Z,16.90
2022-09-02T20:35:25.636Z,16.85
2022-09-02T20:40:27.256Z,16.84
2022-09-02T20:45:54.561Z,16.86
2022-09-02T20:51:12.822Z,16.74
2022-09-02T20:56:33.175Z,16.81
2022-09-02T21:01:36.437Z,16.96
2022-09-02T21:06:42.830Z,16.92
2022-09-02T21:12:18.517Z,16.75
2022-09-02T21:17:28.904Z,16.71
2022-09-02T21:22:40.154Z,16.71
2022-09-02T21:27:55.160Z,16.60
2022-09-02T21:33:01.995Z,16.69
2022-09-02T21:38:09.253Z,16.61
2022-09-02T21:43:26.414Z,16.60
2022-09-02T21:48:34.427Z,16.52
2022-09-02T21:54:17.586Z,16.54
2022-09-02T21:59:30.726Z,16.44
2022-09-02T22:04:54.262Z,16.41
2022-09-02T22:10:29.729Z,16.33
2022-09-02T22:15:58.063Z,16.32
2022-09-02T22:21:08.625Z,16.28
2022-09-02T22:26:36.374Z,16.28
2022-09-02T22:31:42.745Z,16.29
2022-09-02T22:36:52.235Z,16.20
2022-09-02T22:42:04.290Z,16.19
2022-09-02T22:47:32.173Z,16.13
2022-09-02T22:52:50.567Z,16.15
2022-09-02T22:57:58.206Z,16.05
2022-09-02T23:03:05.807Z,16.05
2022-09-02T23:08:08.350Z,16.07
2022-09-02T23:13:23.170Z,15.98
2022-09-02T23:18:33.709Z,15.92
2022-09-02T23:23:38.888Z,15.92
2022-09-02T23:28:46.169Z,15.88
2022-09-02T23:34:07.076Z,15.86
2022-09-02T23:39:39.685Z,15.85
2022-09-02T23:44:41.872Z,15.83
2022-09-02T23:50:06.653Z,15.81
2022-09-02T23:55:16.886Z,15.76
